Time;durP1;ratioP1;P1;durP2;ratioP2;P2;SDS_P1;SDS_P2;PMS_P1;PMS_P2;Temp;Humidity;BMP_temperature;BMP_pressure;BME280_temperature;BME280_humidity;BME280_pressure;Samples;Min_cycle;Max_cycle;Signal;HPM_P1;HPM_P2
2021/08/05 00:00:24;;;;;;;1.63;1.52;;;21.50;64.10;;;;;;5114718;28;20205;-67
2021/08/05 00:02:49;;;;;;;1.75;1.65;;;21.50;64.00;;;;;;5115304;28;20651;-66
2021/08/05 00:05:15;;;;;;;1.58;1.48;;;21.50;64.10;;;;;;5114207;28;20535;-67
2021/08/05 00:07:40;;;;;;;2.65;1.60;;;21.50;64.10;;;;;;5114906;28;20165;-67
2021/08/05 00:10:06;;;;;;;1.90;1.80;;;21.50;64.10;;;;;;5115041;28;20169;-67
2021/08/05 00:12:32;;;;;;;1.60;1.50;;;21.50;64.10;;;;;;5113891;28;20177;-66
2021/08/05 00:14:57;;;;;;;1.83;1.45;;;21.50;64.90;;;;;;5114921;28;20204;-66
2021/08/05 00:17:23;;;;;;;1.65;1.60;;;21.50;64.10;;;;;;5114033;28;20188;-66
2021/08/05 00:19:48;;;;;;;2.30;1.75;;;21.50;64.10;;;;;;5114607;28;20275;-66
2021/08/05 00:22:16;;;;;;;1.75;1.65;;;21.50;64.10;;;;;;5114854;28;20605;-66
2021/08/05 00:24:42;;;;;;;1.70;1.60;;;21.50;64.10;;;;;;5114008;28;20246;-66
2021/08/05 00:27:07;;;;;;;1.90;1.80;;;21.50;64.20;;;;;;5114734;28;20295;-66
2021/08/05 00:29:33;;;;;;;1.70;1.60;;;21.50;64.10;;;;;;5114439;28;20176;-67
2021/08/05 00:31:59;;;;;;;2.03;1.85;;;21.40;64.10;;;;;;5113792;28;20286;-67
2021/08/05 00:34:24;;;;;;;1.70;1.60;;;21.50;64.20;;;;;;5114571;28;20223;-67
2021/08/05 00:36:50;;;;;;;1.70;1.60;;;21.50;64.20;;;;;;5114545;28;20482;-67
2021/08/05 00:39:15;;;;;;;2.03;1.85;;;21.50;64.10;;;;;;5113361;28;20615;-66
2021/08/05 00:41:41;;;;;;;1.95;1.85;;;21.50;64.10;;;;;;5114433;28;20173;-67
2021/08/05 00:44:07;;;;;;;1.95;1.85;;;21.40;64.20;;;;;;5114088;28;20201;-66
2021/08/05 00:46:32;;;;;;;1.77;1.67;;;21.50;64.20;;;;;;5113405;28;20173;-66
2021/08/05 00:48:58;;;;;;;1.92;1.80;;;21.40;64.20;;;;;;5114217;28;20652;-67
2021/08/05 00:51:23;;;;;;;2.03;1.92;;;21.50;64.20;;;;;;5113893;28;20277;-67
2021/08/05 00:53:49;;;;;;;1.80;1.70;;;21.40;64.10;;;;;;5094969;28;20201;-67
2021/08/05 00:56:14;;;;;;;1.50;1.40;;;21.40;64.20;;;;;;5114123;28;20173;-67
2021/08/05 00:58:40;;;;;;;1.80;1.70;;;21.40;64.20;;;;;;5113519;28;20184;-68
2021/08/05 01:01:10;;;;;;;1.83;1.73;;;21.40;64.10;;;;;;5113482;28;20281;-67
2021/08/05 01:03:37;;;;;;;1.98;1.88;;;21.40;64.20;;;;;;5095360;28;20315;-68
2021/08/05 01:06:24;;;;;;;1.70;1.60;;;21.50;64.20;;;;;;5095387;28;20600;-68
2021/08/05 01:08:57;;;;;;;2.08;1.98;;;21.40;64.20;;;;;;5112912;28;20268;-67
2021/08/05 01:11:25;;;;;;;1.70;1.60;;;21.40;64.10;;;;;;5078944;28;20181;-67
2021/08/05 01:13:57;;;;;;;1.55;1.45;;;21.40;64.20;;;;;;5095100;28;20173;-67
2021/08/05 01:16:30;;;;;;;1.80;1.70;;;21.40;64.20;;;;;;5094990;28;20313;-67
2021/08/05 01:19:22;;;;;;;1.77;1.67;;;21.40;64.20;;;;;;5095259;28;20196;-66
2021/08/05 01:22:06;;;;;;;1.70;1.60;;;21.40;64.20;;;;;;5112778;28;20188;-66
2021/08/05 01:24:34;;;;;;;2.00;1.90;;;21.40;64.30;;;;;;5096739;28;20227;-67
2021/08/05 01:27:00;;;;;;;1.80;1.60;;;21.40;64.20;;;;;;5095551;28;20180;-67
2021/08/05 01:29:25;;;;;;;1.80;1.70;;;21.40;65.10;;;;;;5112391;28;20169;-68
2021/08/05 01:31:51;;;;;;;1.80;1.70;;;21.40;64.30;;;;;;5078224;28;20165;-68
2021/08/05 01:34:16;;;;;;;2.00;1.90;;;21.40;64.30;;;;;;5094886;28;20260;-67
2021/08/05 01:36:43;;;;;;;1.80;1.70;;;21.40;64.30;;;;;;5094073;28;20256;-67
2021/08/05 01:39:09;;;;;;;2.03;1.75;;;21.40;64.30;;;;;;5095241;28;20204;-67
2021/08/05 01:41:36;;;;;;;1.95;1.75;;;21.40;64.30;;;;;;5094672;28;20464;-67
2021/08/05 01:44:01;;;;;;;2.05;1.85;;;21.40;64.30;;;;;;5112380;28;20212;-67
2021/08/05 01:46:27;;;;;;;1.77;1.63;;;21.40;64.30;;;;;;5094466;28;20173;-66
2021/08/05 01:48:53;;;;;;;1.80;1.70;;;21.40;64.30;;;;;;5093823;28;20173;-66
2021/08/05 01:51:22;;;;;;;1.98;1.88;;;21.40;64.30;;;;;;5094663;28;20176;-66
2021/08/05 01:53:49;;;;;;;1.92;1.83;;;21.40;64.30;;;;;;5094519;28;20623;-67
2021/08/05 01:56:14;;;;;;;1.77;1.67;;;21.40;64.40;;;;;;5077180;28;20174;-67
2021/08/05 01:58:40;;;;;;;1.80;1.70;;;21.40;64.40;;;;;;5094505;28;20165;-68
2021/08/05 02:01:05;;;;;;;2.30;2.10;;;21.40;64.40;;;;;;5112695;28;20173;-68
2021/08/05 02:03:31;;;;;;;2.10;2.00;;;21.40;64.40;;;;;;5111374;28;20639;-68
2021/08/05 02:06:26;;;;;;;1.90;1.80;;;21.40;64.40;;;;;;5077863;28;20625;-68
2021/08/05 02:08:54;;;;;;;2.15;1.85;;;21.40;64.40;;;;;;5077084;28;20181;-67
2021/08/05 02:11:23;;;;;;;1.80;1.70;;;21.40;64.40;;;;;;5111713;28;20188;-68
2021/08/05 02:13:49;;;;;;;1.70;1.60;;;21.30;64.30;;;;;;5112710;28;20645;-67
2021/08/05 02:16:17;;;;;;;2.22;1.80;;;21.40;64.40;;;;;;5094234;28;20256;-68
2021/08/05 02:18:45;;;;;;;2.08;1.73;;;21.30;64.30;;;;;;5094018;28;20284;-67
2021/08/05 02:21:13;;;;;;;2.20;2.10;;;21.30;64.30;;;;;;5093886;28;20248;-67
2021/08/05 02:23:39;;;;;;;1.90;1.80;;;21.30;64.40;;;;;;5112038;28;20233;-67
2021/08/05 02:26:07;;;;;;;1.90;1.80;;;21.40;64.40;;;;;;5076620;28;20264;-67
2021/08/05 02:28:33;;;;;;;1.90;1.80;;;21.30;64.40;;;;;;5094334;28;20165;-68
2021/08/05 02:30:58;;;;;;;2.10;2.00;;;21.30;64.40;;;;;;5111711;28;20687;-68
2021/08/05 02:33:25;;;;;;;2.13;2.03;;;21.30;64.40;;;;;;5076795;28;20193;-68
2021/08/05 02:35:51;;;;;;;1.83;1.73;;;21.30;64.40;;;;;;5077079;28;20184;-68
2021/08/05 02:38:16;;;;;;;2.28;2.00;;;21.30;64.40;;;;;;5076192;28;20258;-68
2021/08/05 02:40:43;;;;;;;1.98;1.88;;;21.30;64.40;;;;;;5077001;28;20216;-67
2021/08/05 02:43:09;;;;;;;1.67;1.58;;;21.30;64.40;;;;;;5094231;28;20228;-67
2021/08/05 02:45:35;;;;;;;1.90;1.80;;;21.30;64.40;;;;;;5111235;28;20199;-68
2021/08/05 02:48:01;;;;;;;1.70;1.60;;;21.30;64.40;;;;;;5093915;28;20229;-68
2021/08/05 02:50:27;;;;;;;1.90;1.80;;;21.30;64.40;;;;;;5111710;28;20263;-68
2021/08/05 02:52:53;;;;;;;1.73;1.63;;;21.30;64.40;;;;;;5093047;28;20543;-67
2021/08/05 02:55:18;;;;;;;2.05;1.95;;;21.30;65.30;;;;;;5093205;28;20627;-67
2021/08/05 02:57:44;;;;;;;1.90;1.80;;;21.30;64.50;;;;;;5076863;28;20266;-68
2021/08/05 03:00:10;;;;;;;2.08;1.90;;;21.30;64.40;;;;;;5093114;28;20199;-68
2021/08/05 03:02:35;;;;;;;2.22;2.10;;;21.30;64.40;;;;;;5111553;28;20514;-68
2021/08/05 03:05:02;;;;;;;1.83;1.73;;;21.30;64.40;;;;;;5112029;28;20176;-67
2021/08/05 03:07:27;;;;;;;1.88;1.77;;;21.30;64.40;;;;;;5110767;28;20294;-68
2021/08/05 03:09:53;;;;;;;1.90;1.80;;;21.30;64.40;;;;;;5111849;28;20588;-68
2021/08/05 03:12:18;;;;;;;2.00;1.90;;;21.20;64.40;;;;;;5111756;28;20525;-68
2021/08/05 03:14:44;;;;;;;1.90;1.80;;;21.20;64.40;;;;;;5112816;28;20512;-67
2021/08/05 03:17:10;;;;;;;1.70;1.60;;;21.20;64.40;;;;;;5115968;28;20665;-67
2021/08/05 03:19:36;;;;;;;2.10;2.00;;;21.20;64.40;;;;;;5115489;28;20662;-67
2021/08/05 03:22:03;;;;;;;1.90;1.80;;;21.20;64.40;;;;;;5096908;28;20562;-67
2021/08/05 03:24:28;;;;;;;1.95;1.83;;;21.20;64.40;;;;;;5115480;28;20205;-68
2021/08/05 03:26:53;;;;;;;2.28;2.08;;;21.20;64.40;;;;;;5116174;28;20238;-68
2021/08/05 03:29:19;;;;;;;2.13;1.60;;;21.20;64.40;;;;;;5114705;28;20527;-68
2021/08/05 03:31:44;;;;;;;1.75;1.65;;;21.20;64.40;;;;;;5115825;28;20161;-68
2021/08/05 03:34:10;;;;;;;2.08;1.90;;;21.20;64.40;;;;;;5115614;28;20185;-68
2021/08/05 03:36:35;;;;;;;2.20;2.10;;;21.20;64.40;;;;;;5114640;28;20204;-68
2021/08/05 03:39:01;;;;;;;1.90;1.80;;;21.20;64.40;;;;;;5115552;28;20514;-67
2021/08/05 03:41:27;;;;;;;2.20;2.10;;;21.20;64.40;;;;;;5114714;28;20631;-68
2021/08/05 03:43:52;;;;;;;2.13;2.03;;;21.20;64.40;;;;;;5115634;28;20212;-68
2021/08/05 03:46:18;;;;;;;2.00;1.90;;;21.20;64.50;;;;;;5115230;28;20165;-67
2021/08/05 03:48:43;;;;;;;2.10;2.00;;;21.20;64.50;;;;;;5114648;28;20176;-67
2021/08/05 03:51:09;;;;;;;2.00;1.90;;;21.20;64.50;;;;;;5115452;28;20169;-67
2021/08/05 03:53:34;;;;;;;2.42;1.92;;;21.20;65.30;;;;;;5115101;28;20246;-68
2021/08/05 03:56:00;;;;;;;1.90;1.80;;;21.20;64.40;;;;;;5114866;28;20281;-67
2021/08/05 03:58:25;;;;;;;2.22;2.13;;;21.20;64.50;;;;;;5115241;28;20183;-68
2021/08/05 04:00:51;;;;;;;2.13;2.03;;;21.20;64.50;;;;;;5115021;28;20169;-68
2021/08/05 04:03:16;;;;;;;2.25;2.10;;;21.20;64.50;;;;;;5114176;28;20563;-68
2021/08/05 04:05:42;;;;;;;2.20;2.00;;;21.20;64.50;;;;;;5115096;28;20185;-67
2021/08/05 04:08:08;;;;;;;1.80;1.70;;;21.20;64.50;;;;;;5115292;28;20177;-68
2021/08/05 04:10:33;;;;;;;1.50;1.40;;;21.20;64.50;;;;;;5114444;28;20169;-67
2021/08/05 04:12:59;;;;;;;1.83;1.73;;;21.20;64.50;;;;;;5115356;28;20165;-67
2021/08/05 04:15:24;;;;;;;1.88;1.77;;;21.20;64.50;;;;;;5115030;28;20165;-68
2021/08/05 04:17:50;;;;;;;1.85;1.75;;;21.20;64.50;;;;;;5114505;28;20165;-67
2021/08/05 04:20:17;;;;;;;2.10;2.00;;;21.20;64.50;;;;;;5114417;28;20225;-67
2021/08/05 04:22:42;;;;;;;1.85;1.75;;;21.20;64.50;;;;;;5114689;28;20268;-67
2021/08/05 04:25:11;;;;;;;1.92;1.83;;;21.20;64.50;;;;;;5113608;28;20272;-67
2021/08/05 04:27:38;;;;;;;1.85;1.75;;;21.20;64.50;;;;;;5114724;28;20169;-66
2021/08/05 04:30:05;;;;;;;1.90;1.80;;;21.20;64.50;;;;;;5114777;28;20181;-66
2021/08/05 04:32:31;;;;;;;1.65;1.55;;;21.20;64.50;;;;;;5113543;28;20181;-68
2021/08/05 04:34:56;;;;;;;1.80;1.70;;;21.20;64.50;;;;;;5114545;28;20180;-67
2021/08/05 04:37:22;;;;;;;2.00;1.90;;;21.20;64.50;;;;;;5114075;28;20200;-68
2021/08/05 04:39:47;;;;;;;1.90;1.80;;;21.10;64.40;;;;;;5113527;28;20631;-67
2021/08/05 04:42:13;;;;;;;1.95;1.85;;;21.10;64.50;;;;;;5114276;28;20169;-67
2021/08/05 04:44:38;;;;;;;2.20;2.03;;;21.20;64.50;;;;;;5113579;28;20209;-66
2021/08/05 04:47:04;;;;;;;2.05;1.95;;;21.10;64.50;;;;;;5114303;28;20169;-66
2021/08/05 04:49:29;;;;;;;1.88;1.77;;;21.10;64.50;;;;;;5114033;28;20586;-66
2021/08/05 04:51:55;;;;;;;2.00;1.90;;;21.10;64.40;;;;;;5113389;28;20165;-66
2021/08/05 04:54:21;;;;;;;1.83;1.73;;;21.10;64.50;;;;;;5113871;28;20564;-67
2021/08/05 04:56:46;;;;;;;1.85;1.75;;;21.10;64.50;;;;;;5114351;28;20173;-67
2021/08/05 04:59:12;;;;;;;1.85;1.75;;;21.10;64.50;;;;;;5113543;28;20179;-67
2021/08/05 05:01:37;;;;;;;1.90;1.80;;;21.10;64.50;;;;;;5113802;28;20177;-67
2021/08/05 05:04:03;;;;;;;1.70;1.60;;;21.20;64.50;;;;;;5114146;28;20197;-66
2021/08/05 05:06:29;;;;;;;1.98;1.88;;;21.10;64.40;;;;;;5112732;28;20165;-67
2021/08/05 05:08:55;;;;;;;2.00;1.90;;;21.10;64.40;;;;;;5113904;28;20618;-67
2021/08/05 05:11:20;;;;;;;1.88;1.60;;;21.20;64.50;;;;;;5113647;28;20272;-66
2021/08/05 05:13:46;;;;;;;2.25;2.15;;;21.10;64.40;;;;;;5113177;28;20273;-67
2021/08/05 05:16:11;;;;;;;1.73;1.63;;;21.20;64.40;;;;;;5113895;28;20180;-66
2021/08/05 05:18:37;;;;;;;1.63;1.52;;;21.20;64.40;;;;;;5113344;28;20245;-66
2021/08/05 05:21:03;;;;;;;1.85;1.75;;;21.20;64.40;;;;;;5112787;28;20255;-66
2021/08/05 05:23:28;;;;;;;2.55;2.35;;;21.20;64.40;;;;;;5113195;28;20238;-66
2021/08/05 05:25:54;;;;;;;1.67;1.58;;;21.20;64.40;;;;;;5113726;28;20283;-66
2021/08/05 05:28:19;;;;;;;2.08;1.90;;;21.20;64.40;;;;;;5112553;28;20176;-67
2021/08/05 05:30:45;;;;;;;2.05;1.90;;;21.20;64.40;;;;;;5113641;28;20180;-67
2021/08/05 05:33:10;;;;;;;1.92;1.83;;;21.20;64.40;;;;;;5113641;28;20169;-67
2021/08/05 05:35:36;;;;;;;1.85;1.75;;;21.20;64.40;;;;;;5112130;28;20604;-67
2021/08/05 05:38:02;;;;;;;1.88;1.70;;;21.20;64.30;;;;;;5112363;28;20192;-67
2021/08/05 05:40:28;;;;;;;2.00;1.80;;;21.10;64.30;;;;;;5113200;28;20208;-67
2021/08/05 05:42:53;;;;;;;1.90;1.80;;;21.20;64.30;;;;;;5112355;28;20574;-67
2021/08/05 05:45:19;;;;;;;1.90;1.80;;;21.20;64.30;;;;;;5112838;28;20268;-66
2021/08/05 05:47:44;;;;;;;1.88;1.75;;;21.20;64.30;;;;;;5113381;28;20256;-66
2021/08/05 05:50:10;;;;;;;2.03;1.92;;;21.20;64.30;;;;;;5112211;28;20169;-68
2021/08/05 05:52:36;;;;;;;1.85;1.75;;;21.20;64.30;;;;;;5113136;28;20173;-67
2021/08/05 05:55:02;;;;;;;1.95;1.85;;;21.20;64.30;;;;;;5112323;28;20526;-67
2021/08/05 05:57:28;;;;;;;2.20;2.10;;;21.20;64.30;;;;;;5112474;28;20225;-67
2021/08/05 05:59:53;;;;;;;1.95;1.85;;;21.20;64.30;;;;;;5113092;28;20173;-67
2021/08/05 06:02:19;;;;;;;1.80;1.70;;;21.20;64.20;;;;;;5111974;28;20662;-70
2021/08/05 06:04:44;;;;;;;1.90;1.80;;;21.20;64.30;;;;;;5112583;28;20312;-67
2021/08/05 06:07:10;;;;;;;2.25;2.05;;;21.20;64.20;;;;;;5113122;28;20301;-67
2021/08/05 06:09:35;;;;;;;1.90;1.80;;;21.20;64.20;;;;;;5111645;28;20196;-69
2021/08/05 06:12:01;;;;;;;1.75;1.65;;;21.30;64.30;;;;;;5112603;28;20649;-69
2021/08/05 06:14:26;;;;;;;2.33;2.17;;;21.20;64.20;;;;;;5112293;28;20457;-67
2021/08/05 06:16:52;;;;;;;2.08;1.98;;;21.20;64.20;;;;;;5111623;28;20201;-66
2021/08/05 06:19:17;;;;;;;1.60;1.50;;;21.20;64.20;;;;;;5112120;28;20560;-66
2021/08/05 06:21:43;;;;;;;1.95;1.83;;;21.20;64.20;;;;;;5112407;28;20309;-67
2021/08/05 06:24:09;;;;;;;1.80;1.70;;;21.20;64.20;;;;;;5111106;28;20273;-66
2021/08/05 06:26:35;;;;;;;2.00;1.90;;;21.20;64.30;;;;;;5111994;28;20670;-67
2021/08/05 06:29:01;;;;;;;2.03;1.88;;;21.20;64.30;;;;;;5112264;28;20169;-67
2021/08/05 06:31:29;;;;;;;1.98;1.88;;;21.20;64.30;;;;;;5111124;28;20169;-67
2021/08/05 06:33:55;;;;;;;1.90;1.77;;;21.20;64.30;;;;;;5112117;28;20321;-67
2021/08/05 06:36:21;;;;;;;2.20;2.03;;;21.20;64.30;;;;;;5111682;28;20264;-67
2021/08/05 06:38:47;;;;;;;1.85;1.75;;;21.20;64.30;;;;;;5111390;28;20185;-67
2021/08/05 06:41:15;;;;;;;1.92;1.83;;;21.20;64.30;;;;;;5111967;28;20181;-66
2021/08/05 06:43:41;;;;;;;1.70;1.60;;;21.20;64.30;;;;;;5111732;28;20209;-67
2021/08/05 06:46:07;;;;;;;2.03;1.90;;;21.20;64.30;;;;;;5111402;28;20229;-66
2021/08/05 06:48:32;;;;;;;2.33;1.85;;;21.20;64.30;;;;;;5111248;28;20264;-66
2021/08/05 06:50:58;;;;;;;1.70;1.60;;;21.20;64.30;;;;;;5111667;28;20173;-66
2021/08/05 06:53:23;;;;;;;1.75;1.65;;;21.20;64.30;;;;;;5110956;28;20176;-66
2021/08/05 06:55:49;;;;;;;2.00;1.90;;;21.20;64.30;;;;;;5111720;28;20165;-67
2021/08/05 06:58:19;;;;;;;2.20;2.10;;;21.20;64.30;;;;;;5111205;28;20180;-67
2021/08/05 07:00:48;;;;;;;1.98;1.85;;;21.20;64.30;;;;;;5111852;28;20257;-66
2021/08/05 07:03:14;;;;;;;1.98;1.88;;;21.20;64.30;;;;;;5093054;28;20236;-66
2021/08/05 07:05:39;;;;;;;2.03;1.90;;;21.20;64.20;;;;;;5110718;28;20177;-67
2021/08/05 07:08:05;;;;;;;1.85;1.75;;;21.30;64.20;;;;;;5111333;28;20204;-67
2021/08/05 07:10:30;;;;;;;2.30;2.10;;;21.30;64.20;;;;;;5111372;28;20177;-67
2021/08/05 07:12:56;;;;;;;1.90;1.80;;;21.30;64.20;;;;;;5111170;28;20184;-66
2021/08/05 07:15:22;;;;;;;2.00;1.90;;;21.30;64.20;;;;;;5111246;28;20185;-67
2021/08/05 07:17:47;;;;;;;1.77;1.67;;;21.30;64.20;;;;;;5111502;28;20213;-66
2021/08/05 07:20:16;;;;;;;2.17;2.05;;;21.30;64.10;;;;;;5110618;28;20526;-66
2021/08/05 07:22:42;;;;;;;2.10;2.00;;;21.30;64.10;;;;;;5111357;28;20169;-67
2021/08/05 07:25:09;;;;;;;1.85;1.75;;;21.40;64.20;;;;;;5111655;28;20187;-66
2021/08/05 07:27:35;;;;;;;2.13;1.92;;;21.40;64.20;;;;;;5110246;28;20173;-66
2021/08/05 07:30:01;;;;;;;2.00;1.80;;;21.40;64.20;;;;;;5111473;28;20181;-67
2021/08/05 07:32:26;;;;;;;2.22;1.95;;;21.40;64.20;;;;;;5111072;28;20507;-67
2021/08/05 07:34:52;;;;;;;1.80;1.70;;;21.40;64.20;;;;;;5110587;28;20204;-67
2021/08/05 07:37:17;;;;;;;2.25;1.67;;;21.40;64.20;;;;;;5111153;28;20264;-66
2021/08/05 07:39:43;;;;;;;1.92;1.83;;;21.40;64.20;;;;;;5111332;28;20185;-66
2021/08/05 07:42:08;;;;;;;1.88;1.77;;;21.40;64.20;;;;;;5110464;28;20173;-66
2021/08/05 07:44:34;;;;;;;2.10;2.00;;;21.40;64.10;;;;;;5110901;28;20258;-67
2021/08/05 07:46:59;;;;;;;1.88;1.77;;;21.40;64.10;;;;;;5110962;28;20179;-66
2021/08/05 07:49:25;;;;;;;2.22;2.03;;;21.40;64.10;;;;;;5110143;28;20260;-67
2021/08/05 07:51:51;;;;;;;1.80;1.70;;;21.40;64.10;;;;;;5111378;28;20202;-67
2021/08/05 07:54:17;;;;;;;1.75;1.65;;;21.50;64.10;;;;;;5110672;28;20184;-67
2021/08/05 07:56:42;;;;;;;2.85;2.00;;;21.50;64.00;;;;;;5110303;28;20620;-68
2021/08/05 07:59:08;;;;;;;2.05;1.95;;;21.50;63.90;;;;;;5111224;28;20169;-67
2021/08/05 08:01:33;;;;;;;2.00;1.90;;;21.50;64.20;;;;;;5112795;28;20169;-67
2021/08/05 08:03:59;;;;;;;2.03;1.88;;;21.50;64.00;;;;;;5115095;28;20212;-67
2021/08/05 08:06:24;;;;;;;1.95;1.85;;;21.60;64.10;;;;;;5114501;28;20250;-66
2021/08/05 08:08:50;;;;;;;1.85;1.75;;;21.60;64.10;;;;;;5114166;28;20173;-67
2021/08/05 08:11:22;;;;;;;2.20;2.00;;;21.60;64.10;;;;;;5114872;28;20291;-67
2021/08/05 08:13:47;;;;;;;2.05;1.90;;;21.60;64.10;;;;;;5114559;28;20170;-67
2021/08/05 08:16:13;;;;;;;1.98;1.85;;;21.60;64.10;;;;;;5113946;28;20284;-67
2021/08/05 08:18:38;;;;;;;2.05;1.95;;;21.60;64.10;;;;;;5096340;28;20591;-66
2021/08/05 08:21:04;;;;;;;2.28;2.08;;;21.60;64.20;;;;;;5114542;28;20224;-66
2021/08/05 08:23:29;;;;;;;2.00;1.90;;;21.60;64.20;;;;;;5113700;28;20209;-66
2021/08/05 08:25:55;;;;;;;2.20;2.00;;;21.70;64.20;;;;;;5114811;28;20553;-67
2021/08/05 08:28:21;;;;;;;2.92;2.10;;;21.70;64.30;;;;;;5114011;28;20536;-65
2021/08/05 08:30:46;;;;;;;2.22;2.05;;;21.70;64.30;;;;;;5113618;28;20176;-67
2021/08/05 08:33:12;;;;;;;2.33;2.13;;;21.60;64.30;;;;;;5114313;28;20177;-67
2021/08/05 08:35:37;;;;;;;3.45;2.30;;;21.70;64.40;;;;;;5113820;28;20177;-67
2021/08/05 08:38:03;;;;;;;2.17;2.00;;;21.70;64.40;;;;;;5113949;28;20180;-66
2021/08/05 08:40:29;;;;;;;2.78;2.30;;;21.70;64.40;;;;;;5113738;28;20572;-67
2021/08/05 08:42:54;;;;;;;2.50;2.30;;;21.70;64.40;;;;;;5114147;28;20165;-67
2021/08/05 08:45:20;;;;;;;3.42;2.53;;;21.70;65.10;;;;;;5113047;28;20188;-67
2021/08/05 08:47:48;;;;;;;2.50;2.30;;;21.70;64.20;;;;;;5114150;28;20184;-67
2021/08/05 08:50:15;;;;;;;2.70;2.35;;;21.80;64.30;;;;;;5095886;28;20177;-67
2021/08/05 08:52:41;;;;;;;2.45;2.25;;;21.80;64.30;;;;;;5113051;28;20670;-67
2021/08/05 08:55:07;;;;;;;2.45;2.28;;;21.80;64.20;;;;;;5113956;28;20549;-67
2021/08/05 08:57:34;;;;;;;2.40;2.20;;;21.90;64.20;;;;;;5113672;28;20199;-67
2021/08/05 09:00:01;;;;;;;2.53;2.33;;;21.90;64.10;;;;;;5113018;28;20627;-67
2021/08/05 09:02:26;;;;;;;3.00;2.70;;;21.90;64.10;;;;;;5078702;28;20220;-67
2021/08/05 09:04:52;;;;;;;2.72;2.53;;;21.90;64.10;;;;;;5113110;28;20229;-67
2021/08/05 09:07:18;;;;;;;3.08;2.65;;;22.00;64.10;;;;;;5113659;28;20188;-67
2021/08/05 09:09:43;;;;;;;2.70;2.40;;;22.00;64.10;;;;;;5113803;28;20611;-67
2021/08/05 09:12:15;;;;;;;2.90;2.65;;;22.10;64.00;;;;;;5111681;28;20169;-67
2021/08/05 09:14:44;;;;;;;2.50;2.30;;;22.10;63.90;;;;;;5096589;28;20744;-67
2021/08/05 09:17:26;;;;;;;2.90;2.70;;;22.20;63.90;;;;;;5113951;28;20280;-67
2021/08/05 09:19:53;;;;;;;2.70;2.47;;;22.20;63.90;;;;;;5112562;28;20221;-63
2021/08/05 09:22:39;;;;;;;2.55;2.30;;;22.20;63.70;;;;;;5113277;28;20207;-63
2021/08/05 09:25:27;;;;;;;3.00;2.75;;;22.30;63.90;;;;;;5113367;28;20200;-67
2021/08/05 09:27:55;;;;;;;3.10;2.80;;;22.20;64.00;;;;;;5112826;28;20264;-66
2021/08/05 09:30:35;;;;;;;4.50;2.88;;;22.20;64.00;;;;;;5113130;28;20169;-68
2021/08/05 09:33:09;;;;;;;3.25;2.70;;;22.30;64.10;;;;;;5112468;28;20180;-69
2021/08/05 09:35:34;;;;;;;3.70;2.88;;;22.20;64.10;;;;;;5112976;28;20177;-71
2021/08/05 09:38:26;;;;;;;4.63;3.00;;;22.30;64.30;;;;;;5113058;28;20499;-65
2021/08/05 09:41:04;;;;;;;3.00;2.60;;;22.30;64.30;;;;;;5112330;28;20188;-65
2021/08/05 09:43:29;;;;;;;3.67;2.90;;;22.40;64.40;;;;;;5127158;27;20198;-65
2021/08/05 09:45:55;;;;;;;3.08;2.70;;;22.40;64.50;;;;;;5133290;27;20256;-65
2021/08/05 09:48:34;;;;;;;5.57;2.97;;;22.40;64.70;;;;;;5132871;27;20199;-66
2021/08/05 09:51:16;;;;;;;4.00;2.83;;;22.40;64.70;;;;;;5133665;27;20176;-66
2021/08/05 09:53:55;;;;;;;5.45;2.75;;;22.40;64.70;;;;;;5133613;27;20263;-67
2021/08/05 09:56:20;;;;;;;5.43;2.78;;;22.40;64.70;;;;;;5132512;27;20287;-66
2021/08/05 09:58:47;;;;;;;3.30;2.70;;;22.40;64.60;;;;;;5133373;27;20186;-66
2021/08/05 10:01:13;;;;;;;3.42;3.08;;;22.50;64.60;;;;;;5132567;27;20219;-66
2021/08/05 10:03:39;;;;;;;3.35;2.53;;;22.50;64.60;;;;;;5133014;27;20235;-66
2021/08/05 10:06:07;;;;;;;4.47;2.30;;;22.40;64.50;;;;;;5114883;27;20251;-66
2021/08/05 10:08:37;;;;;;;3.28;2.55;;;22.40;64.50;;;;;;5132099;27;20182;-66
2021/08/05 10:11:03;;;;;;;5.95;3.05;;;22.40;64.40;;;;;;5133175;27;20706;-67
2021/08/05 10:13:36;;;;;;;3.10;2.80;;;22.50;64.40;;;;;;5132848;27;20209;-67
2021/08/05 10:16:06;;;;;;;3.17;2.88;;;22.60;64.40;;;;;;5132572;27;20183;-69
2021/08/05 10:18:33;;;;;;;3.60;2.67;;;22.60;65.20;;;;;;5132709;27;20233;-66
2021/08/05 10:21:00;;;;;;;4.07;2.88;;;22.60;64.40;;;;;;5132811;27;20643;-68
2021/08/05 10:23:28;;;;;;;3.13;2.83;;;22.60;64.30;;;;;;5131294;27;20204;-66
2021/08/05 10:25:55;;;;;;;4.47;3.13;;;22.70;64.10;;;;;;5132965;27;20211;-68
2021/08/05 10:28:20;;;;;;;5.70;2.80;;;22.70;64.10;;;;;;5132581;27;20173;-67
2021/08/05 10:30:46;;;;;;;3.45;2.95;;;22.70;64.20;;;;;;5132046;27;20498;-67
2021/08/05 10:33:12;;;;;;;6.75;3.28;;;22.70;64.20;;;;;;5097484;27;20216;-68
2021/08/05 10:35:37;;;;;;;3.83;2.88;;;22.70;64.30;;;;;;5113972;27;20665;-68
2021/08/05 10:38:04;;;;;;;3.13;2.83;;;22.60;64.20;;;;;;5113555;27;20176;-68
2021/08/05 10:40:30;;;;;;;3.72;2.92;;;22.70;64.30;;;;;;5132617;27;20176;-68
2021/08/05 10:42:55;;;;;;;3.33;2.92;;;22.70;64.20;;;;;;5132594;27;20263;-68
2021/08/05 10:45:21;;;;;;;3.92;3.30;;;22.70;64.10;;;;;;5113079;27;20183;-68
2021/08/05 10:47:48;;;;;;;3.80;3.13;;;22.80;64.10;;;;;;5132561;27;20180;-67
2021/08/05 10:50:15;;;;;;;3.20;2.88;;;22.80;64.10;;;;;;5113828;27;20249;-67
2021/08/05 10:52:47;;;;;;;4.68;3.45;;;22.80;64.30;;;;;;5131637;27;20172;-67
2021/08/05 10:55:16;;;;;;;3.67;3.38;;;22.80;65.30;;;;;;5132507;27;20190;-65
2021/08/05 10:57:42;;;;;;;3.25;3.05;;;22.80;65.40;;;;;;5131708;27;20252;-67
2021/08/05 11:00:09;;;;;;;3.53;3.17;;;22.80;64.80;;;;;;5132491;27;20677;-68
2021/08/05 11:02:48;;;;;;;4.63;3.40;;;22.80;64.40;;;;;;5131869;27;20256;-68
2021/08/05 11:05:36;;;;;;;4.20;3.38;;;22.80;64.30;;;;;;5131892;27;20199;-67
2021/08/05 11:08:07;;;;;;;3.78;3.38;;;22.70;64.50;;;;;;5119097;27;20184;-68
2021/08/05 11:10:33;;;;;;;3.33;3.03;;;22.70;64.50;;;;;;5131980;27;20172;-70
2021/08/05 11:13:08;;;;;;;3.65;3.35;;;22.70;64.50;;;;;;5131353;27;20202;-68
2021/08/05 11:15:33;;;;;;;3.90;3.55;;;22.80;64.30;;;;;;5132012;28;20168;-68
2021/08/05 11:18:17;;;;;;;4.20;3.67;;;22.80;64.30;;;;;;5132085;28;20192;-67
2021/08/05 11:20:43;;;;;;;4.15;3.72;;;22.80;64.20;;;;;;5131306;28;20250;-68
2021/08/05 11:23:28;;;;;;;5.20;4.32;;;22.80;64.20;;;;;;5131913;28;20527;-67
2021/08/05 11:25:57;;;;;;;5.55;4.03;;;22.90;64.00;;;;;;5131625;28;20180;-65
2021/08/05 11:28:26;;;;;;;7.40;4.40;;;23.00;64.00;;;;;;5132021;28;20173;-66
2021/08/05 11:30:59;;;;;;;7.60;4.20;;;23.00;64.00;;;;;;5132190;28;20183;-66
2021/08/05 11:33:36;;;;;;;7.00;4.40;;;23.00;64.30;;;;;;5130917;28;20188;-67
2021/08/05 11:36:21;;;;;;;5.10;4.35;;;23.10;64.10;;;;;;5134063;27;20501;-68
2021/08/05 11:39:03;;;;;;;6.13;4.53;;;23.10;64.00;;;;;;5136221;27;20259;-68
2021/08/05 11:41:52;;;;;;;4.85;4.35;;;23.10;63.70;;;;;;5135080;27;20199;-69
2021/08/05 11:44:30;;;;;;;5.35;4.80;;;23.10;63.90;;;;;;5135597;27;20207;-69
2021/08/05 11:47:04;;;;;;;4.65;4.25;;;23.10;63.90;;;;;;5134667;27;20183;-68
2021/08/05 11:49:31;;;;;;;6.25;4.47;;;23.10;63.90;;;;;;5135709;27;20259;-68
2021/08/05 11:51:57;;;;;;;5.82;4.95;;;23.10;63.90;;;;;;5136414;27;20179;-68
2021/08/05 11:54:23;;;;;;;5.88;5.10;;;23.10;64.10;;;;;;5116679;27;20172;-68
2021/08/05 11:57:05;;;;;;;4.88;4.03;;;23.10;64.10;;;;;;5135899;27;20475;-68
2021/08/05 11:59:41;;;;;;;5.63;4.47;;;23.10;63.90;;;;;;5135773;27;20252;-68
2021/08/05 12:02:14;;;;;;;7.72;4.00;;;23.20;63.80;;;;;;5135150;27;20180;-70
2021/08/05 12:04:40;;;;;;;5.60;4.32;;;23.20;63.70;;;;;;5131601;27;20231;-68
2021/08/05 12:07:14;;;;;;;4.75;4.10;;;23.20;63.80;;;;;;5135679;27;20190;-67
2021/08/05 12:09:40;;;;;;;4.55;4.13;;;23.20;64.00;;;;;;5135032;27;20175;-67
2021/08/05 12:12:06;;;;;;;5.25;4.75;;;23.20;63.70;;;;;;5135660;27;20176;-66
2021/08/05 12:14:31;;;;;;;5.05;4.43;;;23.30;63.50;;;;;;5116922;27;20233;-66
2021/08/05 12:16:57;;;;;;;6.13;4.85;;;23.40;63.50;;;;;;5116237;27;20515;-67
2021/08/05 12:19:22;;;;;;;6.63;4.40;;;23.50;63.20;;;;;;5116406;27;20187;-68
2021/08/05 12:21:48;;;;;;;5.20;4.53;;;23.50;63.10;;;;;;5134605;27;20184;-67
2021/08/05 12:24:13;;;;;;;5.10;4.25;;;23.60;63.10;;;;;;5135109;27;20275;-67
2021/08/05 12:26:39;;;;;;;5.90;4.35;;;23.60;63.10;;;;;;5134887;27;20256;-64
2021/08/05 12:29:08;;;;;;;6.00;4.60;;;23.50;63.00;;;;;;5116451;27;20169;-62
2021/08/05 12:31:34;;;;;;;10.05;4.32;;;23.50;62.90;;;;;;5135014;27;20572;-69
2021/08/05 12:33:59;;;;;;;5.07;4.50;;;23.60;62.80;;;;;;5135252;27;20240;-69
2021/08/05 12:36:26;;;;;;;4.32;3.92;;;23.60;62.70;;;;;;5134384;27;20225;-69
2021/08/05 12:38:54;;;;;;;5.55;4.38;;;23.60;62.70;;;;;;5135509;27;20184;-69
2021/08/05 12:41:20;;;;;;;6.60;4.50;;;23.60;63.50;;;;;;5135110;27;20213;-69
2021/08/05 12:43:45;;;;;;;5.50;4.50;;;23.50;62.80;;;;;;5134391;27;20301;-69
2021/08/05 12:46:11;;;;;;;5.93;5.13;;;23.50;62.90;;;;;;5116193;27;20571;-69
2021/08/05 12:48:40;;;;;;;6.20;4.72;;;23.40;62.90;;;;;;5116386;27;20267;-68